sensor_id;sensor_type;location;lat;lon;timestamp;pressure;altitude;pressure_sealevel;temperature;humidity
10712;BME280;5407;51.234;6.804;2024-02-14T00:01:06;101070.09;;;11.09;82.51
10712;BME280;5407;51.234;6.804;2024-02-14T00:08:18;101056.00;;;11.03;84.26
10712;BME280;5407;51.234;6.804;2024-02-14T00:11:32;101060.50;;;10.99;85.21
10712;BME280;5407;51.234;6.804;2024-02-14T00:35:09;101032.03;;;10.90;87.94
10712;BME280;5407;51.234;6.804;2024-02-14T00:38:11;101036.72;;;10.81;89.46
10712;BME280;5407;51.234;6.804;2024-02-14T01:04:40;101029.88;;;10.83;89.06
10712;BME280;5407;51.234;6.804;2024-02-14T02:02:06;101001.69;;;10.93;88.56
10712;BME280;5407;51.234;6.804;2024-02-14T02:05:12;101004.50;;;11.08;88.41
10712;BME280;5407;51.234;6.804;2024-02-14T02:07:43;101002.59;;;11.09;88.60
10712;BME280;5407;51.234;6.804;2024-02-14T02:10:16;100996.44;;;11.20;88.12
10712;BME280;5407;51.234;6.804;2024-02-14T02:12:52;100999.22;;;11.24;87.72
10712;BME280;5407;51.234;6.804;2024-02-14T02:18:31;101003.06;;;11.11;88.94
10712;BME280;5407;51.234;6.804;2024-02-14T02:50:21;101014.88;;;11.30;88.01
10712;BME280;5407;51.234;6.804;2024-02-14T03:26:10;100992.50;;;11.42;95.42
10712;BME280;5407;51.234;6.804;2024-02-14T03:28:53;100982.56;;;11.34;95.94
10712;BME280;5407;51.234;6.804;2024-02-14T03:31:47;100978.28;;;11.33;96.00
10712;BME280;5407;51.234;6.804;2024-02-14T03:39:45;100991.81;;;11.45;97.06
10712;BME280;5407;51.234;6.804;2024-02-14T03:42:18;100988.97;;;11.53;97.25
10712;BME280;5407;51.234;6.804;2024-02-14T03:44:53;100980.56;;;11.43;98.03
10712;BME280;5407;51.234;6.804;2024-02-14T03:47:31;100987.09;;;11.42;97.55
10712;BME280;5407;51.234;6.804;2024-02-14T03:50:06;100978.75;;;11.47;97.72
10712;BME280;5407;51.234;6.804;2024-02-14T04:03:54;100988.75;;;11.46;98.40
10712;BME280;5407;51.234;6.804;2024-02-14T04:07:32;100992.47;;;11.54;98.32
10712;BME280;5407;51.234;6.804;2024-02-14T04:15:29;101001.25;;;11.63;98.26
10712;BME280;5407;51.234;6.804;2024-02-14T04:18:05;101000.81;;;11.61;98.16
10712;BME280;5407;51.234;6.804;2024-02-14T04:20:40;100997.44;;;11.52;98.40
10712;BME280;5407;51.234;6.804;2024-02-14T04:23:22;100996.53;;;11.48;99.21
10712;BME280;5407;51.234;6.804;2024-02-14T04:28:46;101017.00;;;11.72;98.66
10712;BME280;5407;51.234;6.804;2024-02-14T04:31:23;101009.81;;;11.53;99.75
10712;BME280;5407;51.234;6.804;2024-02-14T04:33:58;101014.53;;;11.67;98.36
10712;BME280;5407;51.234;6.804;2024-02-14T04:36:36;101022.44;;;11.61;98.30
10712;BME280;5407;51.234;6.804;2024-02-14T04:39:08;101017.94;;;11.64;98.42
10712;BME280;5407;51.234;6.804;2024-02-14T04:41:57;101020.19;;;11.63;98.74
10712;BME280;5407;51.234;6.804;2024-02-14T04:44:36;101020.31;;;11.66;99.41
10712;BME280;5407;51.234;6.804;2024-02-14T05:15:00;101050.34;;;11.64;99.31
10712;BME280;5407;51.234;6.804;2024-02-14T05:17:35;101043.50;;;11.67;99.63
10712;BME280;5407;51.234;6.804;2024-02-14T05:24:51;101055.75;;;11.64;100.00
10712;BME280;5407;51.234;6.804;2024-02-14T05:27:52;101054.41;;;11.70;100.00
10712;BME280;5407;51.234;6.804;2024-02-14T05:46:35;101049.44;;;11.49;100.00
10712;BME280;5407;51.234;6.804;2024-02-14T05:49:34;101060.47;;;11.44;100.00
10712;BME280;5407;51.234;6.804;2024-02-14T06:03:15;101055.38;;;11.54;100.00
10712;BME280;5407;51.234;6.804;2024-02-14T06:05:48;101063.41;;;11.39;100.00
10712;BME280;5407;51.234;6.804;2024-02-14T06:11:10;101055.75;;;11.41;100.00
10712;BME280;5407;51.234;6.804;2024-02-14T06:13:48;101062.28;;;11.40;100.00
10712;BME280;5407;51.234;6.804;2024-02-14T06:16:45;101062.94;;;11.49;100.00
10712;BME280;5407;51.234;6.804;2024-02-14T06:22:35;101060.59;;;11.59;100.00
10712;BME280;5407;51.234;6.804;2024-02-14T06:30:44;101057.13;;;11.59;100.00
10712;BME280;5407;51.234;6.804;2024-02-14T06:33:27;101069.50;;;11.60;100.00
10712;BME280;5407;51.234;6.804;2024-02-14T06:36:12;101077.28;;;11.61;100.00
10712;BME280;5407;51.234;6.804;2024-02-14T06:38:58;101073.53;;;11.65;100.00
10712;BME280;5407;51.234;6.804;2024-02-14T06:41:28;101080.06;;;11.76;100.00
10712;BME280;5407;51.234;6.804;2024-02-14T06:44:05;101076.47;;;11.61;100.00
10712;BME280;5407;51.234;6.804;2024-02-14T06:46:45;101076.59;;;11.64;100.00
10712;BME280;5407;51.234;6.804;2024-02-14T06:52:08;101084.25;;;11.62;100.00
10712;BME280;5407;51.234;6.804;2024-02-14T06:58:58;101089.31;;;11.75;100.00
10712;BME280;5407;51.234;6.804;2024-02-14T07:04:25;101100.91;;;11.76;100.00
10712;BME280;5407;51.234;6.804;2024-02-14T07:07:48;101108.00;;;11.80;100.00
10712;BME280;5407;51.234;6.804;2024-02-14T07:10:53;101104.50;;;11.80;100.00
10712;BME280;5407;51.234;6.804;2024-02-14T07:19:33;101118.16;;;11.83;100.00
10712;BME280;5407;51.234;6.804;2024-02-14T07:30:30;101117.00;;;11.96;100.00
10712;BME280;5407;51.234;6.804;2024-02-14T07:32:57;101119.50;;;11.89;100.00
10712;BME280;5407;51.234;6.804;2024-02-14T07:35:25;101119.03;;;11.99;100.00
10712;BME280;5407;51.234;6.804;2024-02-14T07:37:52;101118.59;;;11.97;100.00
10712;BME280;5407;51.234;6.804;2024-02-14T07:40:19;101120.38;;;12.05;100.00
10712;BME280;5407;51.234;6.804;2024-02-14T07:42:46;101125.13;;;11.96;100.00
10712;BME280;5407;51.234;6.804;2024-02-14T07:45:13;101137.38;;;12.06;100.00
10712;BME280;5407;51.234;6.804;2024-02-14T07:47:39;101133.09;;;12.17;100.00
10712;BME280;5407;51.234;6.804;2024-02-14T07:50:07;101144.94;;;12.00;100.00
10712;BME280;5407;51.234;6.804;2024-02-14T07:52:36;101140.19;;;12.09;100.00
10712;BME280;5407;51.234;6.804;2024-02-14T07:55:03;101135.59;;;12.10;100.00
10712;BME280;5407;51.234;6.804;2024-02-14T07:57:30;101134.78;;;12.21;100.00
10712;BME280;5407;51.234;6.804;2024-02-14T07:59:58;101145.13;;;12.19;100.00
10712;BME280;5407;51.234;6.804;2024-02-14T08:02:29;101138.16;;;12.18;100.00
10712;BME280;5407;51.234;6.804;2024-02-14T08:04:58;101130.38;;;12.29;100.00
10712;BME280;5407;51.234;6.804;2024-02-14T08:07:25;101140.84;;;12.42;100.00
10712;BME280;5407;51.234;6.804;2024-02-14T08:09:54;101148.06;;;12.26;100.00
10712;BME280;5407;51.234;6.804;2024-02-14T08:12:21;101148.75;;;12.23;100.00
10712;BME280;5407;51.234;6.804;2024-02-14T08:14:48;101147.06;;;12.19;100.00
10712;BME280;5407;51.234;6.804;2024-02-14T08:17:15;101142.09;;;12.33;100.00
10712;BME280;5407;51.234;6.804;2024-02-14T08:19:42;101137.81;;;12.32;100.00
10712;BME280;5407;51.234;6.804;2024-02-14T08:22:09;101133.41;;;12.39;100.00
10712;BME280;5407;51.234;6.804;2024-02-14T08:24:38;101130.69;;;12.39;100.00
10712;BME280;5407;51.234;6.804;2024-02-14T08:27:06;101140.88;;;12.30;100.00
10712;BME280;5407;51.234;6.804;2024-02-14T08:29:33;101147.13;;;12.46;100.00
10712;BME280;5407;51.234;6.804;2024-02-14T08:32:08;101143.97;;;12.44;100.00
10712;BME280;5407;51.234;6.804;2024-02-14T08:34:56;101145.66;;;12.49;100.00
10712;BME280;5407;51.234;6.804;2024-02-14T08:37:50;101145.44;;;12.42;100.00
10712;BME280;5407;51.234;6.804;2024-02-14T08:40:24;101148.47;;;12.52;100.00
10712;BME280;5407;51.234;6.804;2024-02-14T08:42:54;101155.91;;;12.55;100.00
10712;BME280;5407;51.234;6.804;2024-02-14T08:45:21;101158.03;;;12.62;100.00
10712;BME280;5407;51.234;6.804;2024-02-14T08:47:49;101165.84;;;12.51;100.00
10712;BME280;5407;51.234;6.804;2024-02-14T08:50:16;101160.13;;;12.68;100.00
10712;BME280;5407;51.234;6.804;2024-02-14T08:52:43;101155.66;;;12.60;100.00
10712;BME280;5407;51.234;6.804;2024-02-14T08:55:10;101160.81;;;12.65;99.95
10712;BME280;5407;51.234;6.804;2024-02-14T08:57:42;101156.53;;;12.76;100.00
10712;BME280;5407;51.234;6.804;2024-02-14T09:00:12;101167.34;;;12.76;99.63
10712;BME280;5407;51.234;6.804;2024-02-14T09:02:40;101163.97;;;12.67;100.00
10712;BME280;5407;51.234;6.804;2024-02-14T09:05:08;101163.97;;;12.67;100.00
10712;BME280;5407;51.234;6.804;2024-02-14T09:07:35;101158.16;;;12.93;99.70
10712;BME280;5407;51.234;6.804;2024-02-14T09:10:02;101160.97;;;12.96;100.00
10712;BME280;5407;51.234;6.804;2024-02-14T09:12:31;101157.31;;;12.77;100.00
10712;BME280;5407;51.234;6.804;2024-02-14T09:14:59;101155.56;;;12.96;100.00
10712;BME280;5407;51.234;6.804;2024-02-14T09:17:27;101163.00;;;12.99;100.00
10712;BME280;5407;51.234;6.804;2024-02-14T09:19:54;101159.28;;;13.19;98.55
10712;BME280;5407;51.234;6.804;2024-02-14T09:22:21;101156.41;;;13.27;97.79
10712;BME280;5407;51.234;6.804;2024-02-14T09:24:47;101165.97;;;13.37;97.27
10712;BME280;5407;51.234;6.804;2024-02-14T09:27:15;101172.63;;;13.55;96.00
10712;BME280;5407;51.234;6.804;2024-02-14T09:29:42;101175.44;;;13.58;95.49
10712;BME280;5407;51.234;6.804;2024-02-14T09:32:09;101170.78;;;13.43;95.68
10712;BME280;5407;51.234;6.804;2024-02-14T09:34:37;101168.69;;;13.37;95.98
10712;BME280;5407;51.234;6.804;2024-02-14T09:37:04;101165.09;;;13.33;96.29
10712;BME280;5407;51.234;6.804;2024-02-14T09:39:32;101168.41;;;13.42;95.80
10712;BME280;5407;51.234;6.804;2024-02-14T09:42:08;101172.56;;;13.51;95.80
10712;BME280;5407;51.234;6.804;2024-02-14T09:44:36;101168.31;;;13.38;96.19
10712;BME280;5407;51.234;6.804;2024-02-14T09:47:05;101171.31;;;13.49;95.67
10712;BME280;5407;51.234;6.804;2024-02-14T09:49:34;101167.91;;;13.52;94.83
10712;BME280;5407;51.234;6.804;2024-02-14T09:52:04;101173.16;;;13.45;95.41
10712;BME280;5407;51.234;6.804;2024-02-14T09:54:32;101175.84;;;13.45;95.25
10712;BME280;5407;51.234;6.804;2024-02-14T09:57:00;101182.41;;;13.44;95.32
10712;BME280;5407;51.234;6.804;2024-02-14T09:59:29;101184.25;;;13.40;95.18
10712;BME280;5407;51.234;6.804;2024-02-14T10:01:57;101191.56;;;13.39;94.42
10712;BME280;5407;51.234;6.804;2024-02-14T10:08:35;101188.28;;;13.46;94.48
10712;BME280;5407;51.234;6.804;2024-02-14T10:11:04;101187.84;;;13.44;94.34
10712;BME280;5407;51.234;6.804;2024-02-14T10:13:32;101186.44;;;13.50;93.31
10712;BME280;5407;51.234;6.804;2024-02-14T10:16:00;101179.53;;;13.68;93.07
10712;BME280;5407;51.234;6.804;2024-02-14T10:18:27;101196.75;;;13.60;93.74
10712;BME280;5407;51.234;6.804;2024-02-14T10:20:55;101192.50;;;13.74;94.16
10712;BME280;5407;51.234;6.804;2024-02-14T10:23:22;101194.66;;;13.84;93.56
10712;BME280;5407;51.234;6.804;2024-02-14T10:25:57;101195.03;;;13.67;93.77
10712;BME280;5407;51.234;6.804;2024-02-14T10:28:28;101201.47;;;13.63;94.03
10712;BME280;5407;51.234;6.804;2024-02-14T10:30:56;101198.97;;;13.54;94.03
10712;BME280;5407;51.234;6.804;2024-02-14T10:33:23;101199.22;;;13.65;93.64
10712;BME280;5407;51.234;6.804;2024-02-14T10:35:57;101201.59;;;13.66;94.02
10712;BME280;5407;51.234;6.804;2024-02-14T10:38:26;101216.19;;;13.46;95.01
10712;BME280;5407;51.234;6.804;2024-02-14T10:41:04;101215.81;;;13.48;98.25
10712;BME280;5407;51.234;6.804;2024-02-14T10:43:37;101214.81;;;13.40;99.69
10712;BME280;5407;51.234;6.804;2024-02-14T10:46:20;101208.78;;;13.31;100.00
10712;BME280;5407;51.234;6.804;2024-02-14T10:49:09;101205.84;;;13.52;100.00
10712;BME280;5407;51.234;6.804;2024-02-14T10:51:40;101208.81;;;13.47;100.00
10712;BME280;5407;51.234;6.804;2024-02-14T10:54:10;101204.88;;;13.44;100.00
10712;BME280;5407;51.234;6.804;2024-02-14T10:56:41;101208.56;;;13.52;100.00
10712;BME280;5407;51.234;6.804;2024-02-14T10:59:09;101209.09;;;13.57;100.00
10712;BME280;5407;51.234;6.804;2024-02-14T11:01:39;101213.47;;;13.46;100.00
10712;BME280;5407;51.234;6.804;2024-02-14T11:04:06;101204.47;;;13.58;100.00
10712;BME280;5407;51.234;6.804;2024-02-14T11:06:44;101212.78;;;13.65;100.00
10712;BME280;5407;51.234;6.804;2024-02-14T11:09:13;101210.06;;;13.65;100.00
10712;BME280;5407;51.234;6.804;2024-02-14T11:11:42;101208.69;;;13.71;100.00
10712;BME280;5407;51.234;6.804;2024-02-14T11:14:14;101215.16;;;13.82;100.00
10712;BME280;5407;51.234;6.804;2024-02-14T11:16:44;101214.34;;;13.66;100.00
10712;BME280;5407;51.234;6.804;2024-02-14T11:19:12;101199.06;;;13.73;100.00
10712;BME280;5407;51.234;6.804;2024-02-14T11:21:40;101200.91;;;13.85;100.00
10712;BME280;5407;51.234;6.804;2024-02-14T11:24:11;101196.63;;;13.84;100.00
10712;BME280;5407;51.234;6.804;2024-02-14T11:26:39;101209.09;;;13.88;100.00
10712;BME280;5407;51.234;6.804;2024-02-14T11:29:07;101209.75;;;13.82;100.00
10712;BME280;5407;51.234;6.804;2024-02-14T11:31:35;101213.94;;;13.95;100.00
10712;BME280;5407;51.234;6.804;2024-02-14T11:34:04;101204.13;;;14.06;100.00
10712;BME280;5407;51.234;6.804;2024-02-14T11:36:32;101218.06;;;14.20;100.00
10712;BME280;5407;51.234;6.804;2024-02-14T11:39:02;101208.38;;;14.53;98.43
10712;BME280;5407;51.234;6.804;2024-02-14T11:41:32;101207.13;;;14.51;97.56
10712;BME280;5407;51.234;6.804;2024-02-14T11:44:01;101208.75;;;14.36;97.55
10712;BME280;5407;51.234;6.804;2024-02-14T11:46:31;101203.25;;;14.33;98.02
10712;BME280;5407;51.234;6.804;2024-02-14T11:48:58;101198.00;;;14.24;97.91
10712;BME280;5407;51.234;6.804;2024-02-14T11:51:27;101206.78;;;14.18;98.04
10712;BME280;5407;51.234;6.804;2024-02-14T11:53:54;101209.50;;;14.18;97.80
10712;BME280;5407;51.234;6.804;2024-02-14T11:56:21;101209.53;;;14.06;99.14
10712;BME280;5407;51.234;6.804;2024-02-14T11:58:48;101208.13;;;14.12;98.66
10712;BME280;5407;51.234;6.804;2024-02-14T12:01:17;101199.50;;;14.06;99.12
10712;BME280;5407;51.234;6.804;2024-02-14T12:03:46;101205.84;;;14.14;98.71
10712;BME280;5407;51.234;6.804;2024-02-14T12:06:13;101206.22;;;13.97;98.59
10712;BME280;5407;51.234;6.804;2024-02-14T12:08:41;101198.78;;;13.94;99.26
10712;BME280;5407;51.234;6.804;2024-02-14T12:11:09;101201.25;;;13.99;99.44
10712;BME280;5407;51.234;6.804;2024-02-14T12:13:36;101198.19;;;13.85;100.00
10712;BME280;5407;51.234;6.804;2024-02-14T12:16:03;101205.88;;;13.83;100.00
10712;BME280;5407;51.234;6.804;2024-02-14T12:18:34;101194.69;;;13.69;100.00
10712;BME280;5407;51.234;6.804;2024-02-14T12:21:06;101202.34;;;13.67;100.00
10712;BME280;5407;51.234;6.804;2024-02-14T12:23:34;101198.34;;;13.61;100.00
10712;BME280;5407;51.234;6.804;2024-02-14T12:26:01;101194.28;;;13.39;100.00
10712;BME280;5407;51.234;6.804;2024-02-14T12:28:30;101190.75;;;13.66;100.00
10712;BME280;5407;51.234;6.804;2024-02-14T12:30:57;101201.94;;;13.49;100.00
10712;BME280;5407;51.234;6.804;2024-02-14T12:33:25;101189.84;;;13.47;100.00
10712;BME280;5407;51.234;6.804;2024-02-14T12:35:54;101192.19;;;13.33;100.00
10712;BME280;5407;51.234;6.804;2024-02-14T12:38:24;101193.16;;;13.40;100.00
10712;BME280;5407;51.234;6.804;2024-02-14T12:40:51;101191.78;;;13.46;100.00
10712;BME280;5407;51.234;6.804;2024-02-14T12:43:19;101197.09;;;13.43;100.00
10712;BME280;5407;51.234;6.804;2024-02-14T12:45:45;101201.13;;;13.49;100.00
10712;BME280;5407;51.234;6.804;2024-02-14T12:48:13;101197.09;;;13.43;100.00
10712;BME280;5407;51.234;6.804;2024-02-14T12:50:41;101197.38;;;13.53;100.00
10712;BME280;5407;51.234;6.804;2024-02-14T12:53:13;101189.25;;;13.53;100.00
10712;BME280;5407;51.234;6.804;2024-02-14T12:55:41;101185.41;;;13.54;100.00
10712;BME280;5407;51.234;6.804;2024-02-14T12:58:09;101179.78;;;13.63;100.00
10712;BME280;5407;51.234;6.804;2024-02-14T13:00:36;101187.34;;;13.85;100.00
10712;BME280;5407;51.234;6.804;2024-02-14T13:03:03;101184.72;;;13.73;100.00
10712;BME280;5407;51.234;6.804;2024-02-14T13:05:31;101179.63;;;13.87;100.00
10712;BME280;5407;51.234;6.804;2024-02-14T13:07:58;101184.91;;;13.80;100.00
10712;BME280;5407;51.234;6.804;2024-02-14T13:10:25;101177.84;;;14.10;100.00
10712;BME280;5407;51.234;6.804;2024-02-14T13:12:53;101176.13;;;14.02;100.00
10712;BME280;5407;51.234;6.804;2024-02-14T13:15:20;101172.19;;;13.99;100.00
10712;BME280;5407;51.234;6.804;2024-02-14T13:17:47;101162.56;;;14.17;100.00
10712;BME280;5407;51.234;6.804;2024-02-14T13:20:14;101162.44;;;14.14;100.00
10712;BME280;5407;51.234;6.804;2024-02-14T13:22:41;101171.56;;;14.06;100.00
10712;BME280;5407;51.234;6.804;2024-02-14T13:25:08;101163.84;;;14.08;100.00
10712;BME280;5407;51.234;6.804;2024-02-14T13:27:35;101169.81;;;14.29;100.00
10712;BME280;5407;51.234;6.804;2024-02-14T13:30:05;101168.09;;;14.21;100.00
10712;BME280;5407;51.234;6.804;2024-02-14T13:32:39;101163.41;;;14.37;100.00
10712;BME280;5407;51.234;6.804;2024-02-14T13:35:11;101153.28;;;14.18;100.00
10712;BME280;5407;51.234;6.804;2024-02-14T13:37:42;101161.25;;;14.27;100.00
10712;BME280;5407;51.234;6.804;2024-02-14T13:40:10;101164.84;;;14.15;100.00
10712;BME280;5407;51.234;6.804;2024-02-14T13:42:41;101163.38;;;14.18;100.00
10712;BME280;5407;51.234;6.804;2024-02-14T13:45:10;101175.78;;;14.19;100.00
10712;BME280;5407;51.234;6.804;2024-02-14T13:47:37;101167.97;;;14.02;100.00
10712;BME280;5407;51.234;6.804;2024-02-14T13:50:07;101163.81;;;14.20;100.00
10712;BME280;5407;51.234;6.804;2024-02-14T13:52:34;101168.09;;;14.21;100.00
10712;BME280;5407;51.234;6.804;2024-02-14T13:55:01;101163.53;;;14.25;100.00
10712;BME280;5407;51.234;6.804;2024-02-14T13:57:31;101165.44;;;14.09;100.00
10712;BME280;5407;51.234;6.804;2024-02-14T13:59:58;101164.81;;;14.31;100.00
10712;BME280;5407;51.234;6.804;2024-02-14T14:02:26;101161.00;;;14.16;100.00
10712;BME280;5407;51.234;6.804;2024-02-14T14:04:53;101163.97;;;14.27;100.00
10712;BME280;5407;51.234;6.804;2024-02-14T14:07:21;101161.78;;;14.17;100.00
10712;BME280;5407;51.234;6.804;2024-02-14T14:09:49;101155.44;;;14.13;100.00
10712;BME280;5407;51.234;6.804;2024-02-14T14:12:16;101159.50;;;14.03;100.00
10712;BME280;5407;51.234;6.804;2024-02-14T14:14:43;101157.13;;;14.17;100.00
10712;BME280;5407;51.234;6.804;2024-02-14T14:17:10;101152.13;;;14.04;100.00
10712;BME280;5407;51.234;6.804;2024-02-14T14:19:38;101156.53;;;14.08;100.00
10712;BME280;5407;51.234;6.804;2024-02-14T14:22:05;101163.50;;;14.09;100.00
10712;BME280;5407;51.234;6.804;2024-02-14T14:24:35;101158.28;;;14.01;100.00
10712;BME280;5407;51.234;6.804;2024-02-14T14:27:03;101165.72;;;13.88;100.00
10712;BME280;5407;51.234;6.804;2024-02-14T14:29:34;101164.78;;;13.81;100.00
10712;BME280;5407;51.234;6.804;2024-02-14T14:32:01;101171.06;;;13.85;100.00
10712;BME280;5407;51.234;6.804;2024-02-14T14:34:29;101174.75;;;13.77;100.00
10712;BME280;5407;51.234;6.804;2024-02-14T14:36:59;101167.75;;;13.76;100.00
10712;BME280;5407;51.234;6.804;2024-02-14T14:39:27;101165.75;;;13.73;100.00
10712;BME280;5407;51.234;6.804;2024-02-14T14:41:55;101168.63;;;13.64;100.00
10712;BME280;5407;51.234;6.804;2024-02-14T14:44:24;101167.13;;;13.51;100.00
10712;BME280;5407;51.234;6.804;2024-02-14T14:46:51;101164.75;;;13.50;100.00
10712;BME280;5407;51.234;6.804;2024-02-14T14:49:18;101156.28;;;13.36;100.00
10712;BME280;5407;51.234;6.804;2024-02-14T14:51:45;101149.53;;;13.30;100.00
10712;BME280;5407;51.234;6.804;2024-02-14T14:54:13;101157.47;;;13.38;100.00
10712;BME280;5407;51.234;6.804;2024-02-14T14:56:40;101161.25;;;13.34;100.00
10712;BME280;5407;51.234;6.804;2024-02-14T14:59:07;101155.19;;;13.40;100.00
10712;BME280;5407;51.234;6.804;2024-02-14T15:01:35;101160.56;;;13.37;100.00
10712;BME280;5407;51.234;6.804;2024-02-14T15:04:02;101159.75;;;13.36;100.00
10712;BME280;5407;51.234;6.804;2024-02-14T15:06:31;101154.78;;;13.54;100.00
10712;BME280;5407;51.234;6.804;2024-02-14T15:08:57;101160.56;;;13.37;100.00
10712;BME280;5407;51.234;6.804;2024-02-14T15:11:26;101161.31;;;13.37;100.00
10712;BME280;5407;51.234;6.804;2024-02-14T15:13:54;101160.88;;;13.35;100.00
10712;BME280;5407;51.234;6.804;2024-02-14T15:16:21;101163.69;;;13.39;100.00
10712;BME280;5407;51.234;6.804;2024-02-14T15:18:48;101154.31;;;13.36;100.00
10712;BME280;5407;51.234;6.804;2024-02-14T15:21:15;101158.34;;;13.42;100.00
10712;BME280;5407;51.234;6.804;2024-02-14T15:23:42;101163.25;;;13.37;100.00
10712;BME280;5407;51.234;6.804;2024-02-14T15:26:10;101152.34;;;13.49;100.00
10712;BME280;5407;51.234;6.804;2024-02-14T15:28:39;101152.25;;;13.45;100.00
10712;BME280;5407;51.234;6.804;2024-02-14T15:31:07;101148.75;;;13.45;100.00
10712;BME280;5407;51.234;6.804;2024-02-14T15:33:52;101150.44;;;13.49;100.00
10712;BME280;5407;51.234;6.804;2024-02-14T15:36:21;101152.50;;;13.56;100.00
10712;BME280;5407;51.234;6.804;2024-02-14T15:38:49;101154.63;;;13.47;100.00
10712;BME280;5407;51.234;6.804;2024-02-14T15:41:17;101156.09;;;13.44;100.00
10712;BME280;5407;51.234;6.804;2024-02-14T15:43:46;101151.31;;;13.53;100.00
10712;BME280;5407;51.234;6.804;2024-02-14T15:46:14;101155.75;;;13.61;100.00
10712;BME280;5407;51.234;6.804;2024-02-14T15:48:43;101153.22;;;13.53;100.00
10712;BME280;5407;51.234;6.804;2024-02-14T15:51:10;101155.31;;;13.59;100.00
10712;BME280;5407;51.234;6.804;2024-02-14T15:53:37;101151.47;;;13.60;100.00
10712;BME280;5407;51.234;6.804;2024-02-14T15:56:06;101161.97;;;13.62;100.00
10712;BME280;5407;51.234;6.804;2024-02-14T15:58:36;101160.22;;;13.54;100.00
10712;BME280;5407;51.234;6.804;2024-02-14T16:01:07;101164.66;;;13.62;100.00
10712;BME280;5407;51.234;6.804;2024-02-14T16:03:34;101162.91;;;13.54;100.00
10712;BME280;5407;51.234;6.804;2024-02-14T16:06:01;101164.41;;;13.67;100.00
10712;BME280;5407;51.234;6.804;2024-02-14T16:08:27;101161.97;;;13.62;100.00
10712;BME280;5407;51.234;6.804;2024-02-14T16:10:54;101164.41;;;13.67;100.00
10712;BME280;5407;51.234;6.804;2024-02-14T16:13:23;101164.22;;;13.60;100.00
10712;BME280;5407;51.234;6.804;2024-02-14T16:15:50;101170.53;;;13.64;100.00
10712;BME280;5407;51.234;6.804;2024-02-14T16:18:18;101166.69;;;13.65;100.00
10712;BME280;5407;51.234;6.804;2024-02-14T16:20:45;101170.53;;;13.64;100.00
10712;BME280;5407;51.234;6.804;2024-02-14T16:23:12;101157.94;;;13.56;100.00
10712;BME280;5407;51.234;6.804;2024-02-14T16:25:39;101164.34;;;13.63;100.00
10712;BME280;5407;51.234;6.804;2024-02-14T16:28:06;101170.78;;;13.74;100.00
10712;BME280;5407;51.234;6.804;2024-02-14T16:30:33;101168.25;;;13.66;100.00
10712;BME280;5407;51.234;6.804;2024-02-14T16:33:00;101159.69;;;13.64;100.00
10712;BME280;5407;51.234;6.804;2024-02-14T16:35:28;101167.31;;;13.74;100.00
10712;BME280;5407;51.234;6.804;2024-02-14T16:37:56;101163.03;;;13.73;100.00
10712;BME280;5407;51.234;6.804;2024-02-14T16:40:30;101162.50;;;13.83;100.00
10712;BME280;5407;51.234;6.804;2024-02-14T16:43:01;101163.91;;;13.77;100.00
10712;BME280;5407;51.234;6.804;2024-02-14T16:45:28;101167.03;;;13.63;100.00
10712;BME280;5407;51.234;6.804;2024-02-14T16:47:55;101164.94;;;13.72;100.00
10712;BME280;5407;51.234;6.804;2024-02-14T16:50:22;101175.44;;;13.74;100.00
10712;BME280;5407;51.234;6.804;2024-02-14T16:52:52;101168.25;;;13.66;100.00
10712;BME280;5407;51.234;6.804;2024-02-14T16:55:21;101172.91;;;13.81;100.00
10712;BME280;5407;51.234;6.804;2024-02-14T16:57:51;101177.34;;;13.73;100.00
10712;BME280;5407;51.234;6.804;2024-02-14T17:00:19;101176.38;;;13.66;100.00
10712;BME280;5407;51.234;6.804;2024-02-14T17:02:46;101177.63;;;13.84;100.00
10712;BME280;5407;51.234;6.804;2024-02-14T17:05:16;101174.91;;;13.68;100.00
10712;BME280;5407;51.234;6.804;2024-02-14T17:07:50;101174.56;;;13.70;100.00
10712;BME280;5407;51.234;6.804;2024-02-14T17:10:19;101185.50;;;13.73;100.00
10712;BME280;5407;51.234;6.804;2024-02-14T17:12:46;101178.59;;;13.76;100.00
10712;BME280;5407;51.234;6.804;2024-02-14T17:15:13;101183.59;;;13.74;100.00
10712;BME280;5407;51.234;6.804;2024-02-14T17:17:40;101184.09;;;13.79;100.00
10712;BME280;5407;51.234;6.804;2024-02-14T17:20:08;101194.94;;;13.95;100.00
10712;BME280;5407;51.234;6.804;2024-02-14T17:22:35;101195.22;;;13.90;100.00
10712;BME280;5407;51.234;6.804;2024-02-14T17:25:02;101200.63;;;13.90;100.00
10712;BME280;5407;51.234;6.804;2024-02-14T17:27:32;101205.53;;;13.84;100.00
10712;BME280;5407;51.234;6.804;2024-02-14T17:29:59;101204.13;;;13.90;100.00
10712;BME280;5407;51.234;6.804;2024-02-14T17:32:26;101204.47;;;13.89;100.00
10712;BME280;5407;51.234;6.804;2024-02-14T17:34:52;101203.78;;;13.92;100.00
10712;BME280;5407;51.234;6.804;2024-02-14T17:37:20;101205.78;;;13.95;100.00
10712;BME280;5407;51.234;6.804;2024-02-14T17:39:47;101207.81;;;13.98;100.00
10712;BME280;5407;51.234;6.804;2024-02-14T17:42:14;101204.47;;;13.89;100.00
10712;BME280;5407;51.234;6.804;2024-02-14T17:44:42;101203.19;;;13.98;100.00
10712;BME280;5407;51.234;6.804;2024-02-14T17:47:09;101208.34;;;13.88;100.00
10712;BME280;5407;51.234;6.804;2024-02-14T17:49:36;101207.47;;;13.84;100.00
10712;BME280;5407;51.234;6.804;2024-02-14T17:52:04;101210.00;;;13.92;100.00
10712;BME280;5407;51.234;6.804;2024-02-14T17:54:30;101214.19;;;13.90;100.00
10712;BME280;5407;51.234;6.804;2024-02-14T17:56:58;101218.31;;;13.84;100.00
10712;BME280;5407;51.234;6.804;2024-02-14T17:59:25;101216.81;;;13.86;100.00
10712;BME280;5407;51.234;6.804;2024-02-14T18:01:54;101221.97;;;13.76;100.00
10712;BME280;5407;51.234;6.804;2024-02-14T18:04:20;101218.13;;;13.77;100.00
10712;BME280;5407;51.234;6.804;2024-02-14T18:06:49;101218.91;;;13.93;100.00